createdAt,value
2018-04-14T00:07:14.000Z,1006.643
2018-04-14T00:17:14.000Z,1006.673
2018-04-14T00:27:14.000Z,1006.774
2018-04-14T00:37:15.000Z,1006.758
2018-04-14T00:47:15.000Z,1006.733
2018-04-14T00:57:15.000Z,1006.869
2018-04-14T01:07:15.000Z,1006.913
2018-04-14T01:17:15.000Z,1006.964
2018-04-14T01:27:15.000Z,1007.004
2018-04-14T01:37:15.000Z,1007.033
2018-04-14T01:47:15.000Z,1007.08
2018-04-14T01:57:15.000Z,1007.125
2018-04-14T02:07:15.000Z,1007.165
2018-04-14T02:17:15.000Z,1006.985
2018-04-14T02:27:15.000Z,1007.012
2018-04-14T02:37:15.000Z,1007.047
2018-04-14T02:47:15.000Z,1007.041
2018-04-14T02:57:15.000Z,1007.045
2018-04-14T03:07:15.000Z,1007.092
2018-04-14T03:17:15.000Z,1007.081
2018-04-14T03:27:15.000Z,1007.18
2018-04-14T03:37:15.000Z,1007.214
2018-04-14T03:47:15.000Z,1007.267
2018-04-14T03:57:15.000Z,1007.376
2018-04-14T04:07:15.000Z,1007.556
2018-04-14T04:17:15.000Z,1007.693
2018-04-14T04:27:15.000Z,1007.797
2018-04-14T04:37:15.000Z,1007.93
2018-04-14T04:47:15.000Z,1008.129
2018-04-14T04:57:15.000Z,1008.246
2018-04-14T05:07:15.000Z,1008.353
2018-04-14T05:17:15.000Z,1008.56
2018-04-14T05:27:15.000Z,1008.766
2018-04-14T05:37:15.000Z,1008.835
2018-04-14T05:47:15.000Z,1008.888
2018-04-14T05:57:15.000Z,1008.961
2018-04-14T06:07:15.000Z,1009.018
2018-04-14T06:17:15.000Z,1009.061
2018-04-14T06:27:15.000Z,1009.256
2018-04-14T06:37:15.000Z,1009.333
2018-04-14T06:47:15.000Z,1009.325
2018-04-14T06:57:15.000Z,1009.4
2018-04-14T07:07:15.000Z,1009.6
2018-04-14T07:17:15.000Z,1009.662
2018-04-14T07:27:15.000Z,1009.809
2018-04-14T07:37:15.000Z,1009.898
2018-04-14T07:47:15.000Z,1009.948
2018-04-14T07:57:15.000Z,1010.025
2018-04-14T08:07:15.000Z,1010.168
2018-04-14T08:17:15.000Z,1010.261
2018-04-14T08:27:15.000Z,1010.345
2018-04-14T08:37:15.000Z,1010.421
2018-04-14T08:47:15.000Z,1010.552
2018-04-14T08:57:15.000Z,1010.496
2018-04-14T09:07:16.000Z,1010.575
2018-04-14T09:17:16.000Z,1010.679
2018-04-14T09:27:16.000Z,1010.659
2018-04-14T09:37:16.000Z,1010.718
2018-04-14T09:47:16.000Z,1010.763
2018-04-14T09:57:16.000Z,1010.748
2018-04-14T10:07:16.000Z,1010.823
2018-04-14T10:17:16.000Z,1010.807
2018-04-14T10:27:16.000Z,1010.822
2018-04-14T10:37:16.000Z,1010.801
2018-04-14T10:47:16.000Z,1010.809
2018-04-14T10:57:18.000Z,1010.898
2018-04-14T11:07:16.000Z,1010.823
2018-04-14T11:17:16.000Z,1010.85
2018-04-14T11:27:16.000Z,1010.791
2018-04-14T11:37:16.000Z,1010.87
2018-04-14T11:47:16.000Z,1010.969
2018-04-14T11:57:17.000Z,1010.963
2018-04-14T12:07:16.000Z,1011.018
2018-04-14T12:17:16.000Z,1011.045
2018-04-14T12:27:16.000Z,1011.056
2018-04-14T12:37:16.000Z,1011.094
2018-04-14T12:47:16.000Z,1011.175
2018-04-14T12:57:16.000Z,1011.279
2018-04-14T13:07:16.000Z,1011.256
2018-04-14T13:17:16.000Z,1011.18
2018-04-14T13:27:16.000Z,1011.133
2018-04-14T13:37:16.000Z,1011.134
2018-04-14T13:47:16.000Z,1011.11
2018-04-14T13:57:16.000Z,1011.097
2018-04-14T14:07:16.000Z,1011.159
2018-04-14T14:17:16.000Z,1011.142
2018-04-14T14:27:16.000Z,1011.116
2018-04-14T14:37:16.000Z,1011.06
2018-04-14T14:47:16.000Z,1010.992
2018-04-14T14:57:16.000Z,1010.923
2018-04-14T15:07:16.000Z,1010.836
2018-04-14T15:17:16.000Z,1010.74
2018-04-14T15:27:16.000Z,1010.582
2018-04-14T15:37:16.000Z,1010.566
2018-04-14T15:47:16.000Z,1010.488
2018-04-14T15:57:16.000Z,1010.391
2018-04-14T16:07:16.000Z,1010.422
2018-04-14T16:17:16.000Z,1010.391
2018-04-14T16:27:16.000Z,1010.432
2018-04-14T16:37:16.000Z,1010.503
2018-04-14T16:47:16.000Z,1010.526
2018-04-14T16:57:16.000Z,1010.516
2018-04-14T17:07:16.000Z,1010.521
2018-04-14T17:17:16.000Z,1010.497
2018-04-14T17:27:16.000Z,1010.527
2018-04-14T17:37:17.000Z,1010.583
2018-04-14T17:47:17.000Z,1010.547
2018-04-14T17:57:19.000Z,1010.625
2018-04-14T18:07:17.000Z,1010.653
2018-04-14T18:17:17.000Z,1010.672
2018-04-14T18:27:17.000Z,1010.564
2018-04-14T18:37:17.000Z,1010.716
2018-04-14T18:47:17.000Z,1010.812
2018-04-14T18:57:17.000Z,1010.924
2018-04-14T19:07:17.000Z,1010.934
2018-04-14T19:17:17.000Z,1010.906
2018-04-14T19:27:17.000Z,1010.842
2018-04-14T19:37:17.000Z,1010.866
2018-04-14T19:47:17.000Z,1010.822
2018-04-14T19:57:17.000Z,1010.848
2018-04-14T20:07:17.000Z,1010.761
2018-04-14T20:17:17.000Z,1010.825
2018-04-14T20:27:17.000Z,1010.845
2018-04-14T20:37:17.000Z,1010.758
2018-04-14T20:47:17.000Z,1010.686
2018-04-14T20:57:17.000Z,1010.601
2018-04-14T21:07:17.000Z,1010.536
2018-04-14T21:17:17.000Z,1010.537
2018-04-14T21:27:17.000Z,1010.562
2018-04-14T21:37:17.000Z,1010.506
2018-04-14T21:47:17.000Z,1010.474
2018-04-14T21:57:17.000Z,1010.328
2018-04-14T22:07:17.000Z,1010.223
2018-04-14T22:17:17.000Z,1010.164
2018-04-14T22:27:17.000Z,1010.097
2018-04-14T22:37:17.000Z,1010.089
2018-04-14T22:47:17.000Z,1009.924
2018-04-14T22:57:17.000Z,1009.799
2018-04-14T23:07:17.000Z,1009.594
2018-04-14T23:17:17.000Z,1009.456
2018-04-14T23:27:17.000Z,1009.345
2018-04-14T23:37:17.000Z,1009.349
2018-04-14T23:47:17.000Z,1009.286
2018-04-14T23:57:17.000Z,1009.217
